Time;durP1;ratioP1;P1;durP2;ratioP2;P2;SDS_P1;SDS_P2;PMS_P1;PMS_P2;Temp;Humidity;BMP_temperature;BMP_pressure;BME280_temperature;BME280_humidity;BME280_pressure;Samples;Min_cycle;Max_cycle;Signal;HPM_P1;HPM_P2
2022/08/29 00:01:16;;;;;;;9.63;3.60;;;;;;;14.83;89.76;101091.28;5221431;28;20383;-77
2022/08/29 00:03:47;;;;;;;9.27;3.47;;;;;;;14.82;89.10;101095.75;5221256;28;20020;-77
2022/08/29 00:06:17;;;;;;;12.40;3.65;;;;;;;14.90;89.75;101095.34;5220443;28;20479;-77
2022/08/29 00:08:48;;;;;;;9.75;3.60;;;;;;;14.87;88.04;101084.94;5219771;28;20028;-77
2022/08/29 00:11:19;;;;;;;7.05;2.85;;;;;;;14.88;88.32;101089.28;5218815;28;20024;-77
2022/08/29 00:13:49;;;;;;;9.27;3.50;;;;;;;14.69;90.16;101091.94;5220500;28;20040;-78
2022/08/29 00:16:20;;;;;;;10.80;3.63;;;;;;;14.63;90.38;101093.06;5221273;28;20025;-77
2022/08/29 00:18:50;;;;;;;7.75;2.70;;;;;;;14.57;90.13;101092.50;5218554;28;20104;-78
2022/08/29 00:21:21;;;;;;;10.50;3.58;;;;;;;14.42;90.94;101098.41;5221010;28;20020;-78
2022/08/29 00:23:51;;;;;;;10.20;3.05;;;;;;;14.45;89.76;101096.50;5202069;28;20033;-77
2022/08/29 00:26:21;;;;;;;7.82;3.30;;;;;;;14.51;90.97;101093.63;5220213;28;20029;-77
2022/08/29 00:28:52;;;;;;;10.73;3.50;;;;;;;14.44;90.91;101099.22;5219157;28;20545;-77
2022/08/29 00:31:22;;;;;;;8.55;3.10;;;;;;;14.31;91.88;101105.91;5220103;28;20025;-78
2022/08/29 00:33:53;;;;;;;12.52;3.35;;;;;;;14.35;90.65;101091.69;5220050;28;20095;-78
2022/08/29 00:36:26;;;;;;;8.10;3.08;;;;;;;14.24;92.37;101089.53;5194879;28;20025;-77
2022/08/29 00:38:56;;;;;;;6.30;2.97;;;;;;;14.40;91.51;101087.94;5208838;28;20036;-78
2022/08/29 00:41:26;;;;;;;9.23;3.22;;;;;;;14.11;92.19;101096.16;5218913;28;20013;-78
2022/08/29 00:43:56;;;;;;;10.82;3.78;;;;;;;14.03;93.13;101095.66;5219617;28;20036;-77
2022/08/29 00:46:39;;;;;;;9.93;3.42;;;;;;;14.08;93.00;101103.34;5220275;28;20175;-77
2022/08/29 00:49:21;;;;;;;8.07;2.80;;;;;;;14.07;93.76;101096.38;5217221;28;20092;-78
2022/08/29 00:51:53;;;;;;;6.28;2.95;;;;;;;13.99;94.59;101094.06;5235605;22;20102;-71
2022/08/29 00:54:25;;;;;;;9.63;3.15;;;;;;;14.08;93.22;101098.94;5209923;28;20029;-72
2022/08/29 00:56:57;;;;;;;8.57;3.30;;;;;;;13.97;94.21;101098.53;5203242;28;20502;-71
2022/08/29 00:59:33;;;;;;;9.68;3.20;;;;;;;14.06;93.32;101092.88;5211959;28;20021;-71
2022/08/29 01:02:05;;;;;;;;;;;;;;;13.80;95.13;101102.75;5214797;28;20036;-71
2022/08/29 01:04:36;;;;;;;7.60;3.40;;;;;;;13.95;95.20;101099.50;5213699;28;19912;-71
2022/08/29 01:07:09;;;;;;;9.32;3.60;;;;;;;13.92;95.17;101097.00;5212255;28;20507;-71
2022/08/29 01:09:42;;;;;;;9.48;3.10;;;;;;;13.96;94.68;101098.59;5212793;28;20056;-73
2022/08/29 01:12:18;;;;;;;8.70;3.15;;;;;;;14.03;93.72;101100.03;5204189;28;20141;-73
2022/08/29 01:15:11;;;;;;;9.90;3.30;;;;;;;13.98;94.37;101097.63;5207374;28;20494;-73
2022/08/29 01:17:45;;;;;;;10.02;3.25;;;;;;;14.11;91.76;101097.97;5205232;28;20059;-71
2022/08/29 01:20:39;;;;;;;12.93;3.45;;;;;;;14.00;94.42;101100.16;5206452;28;20033;-73
2022/08/29 01:23:25;;;;;;;10.77;3.25;;;;;;;13.62;95.61;101087.72;5211541;28;20510;-73
2022/08/29 01:25:57;;;;;;;8.60;3.17;;;;;;;13.73;95.15;101096.06;5211325;28;20057;-71
2022/08/29 01:28:32;;;;;;;8.30;3.03;;;;;;;13.76;94.62;101093.28;5195483;28;20102;-73
2022/08/29 01:31:05;;;;;;;8.00;3.47;;;;;;;13.51;96.13;101103.03;5212558;28;20022;-73
2022/08/29 01:33:38;;;;;;;7.47;3.33;;;;;;;13.21;97.57;101107.72;5213186;28;20086;-73
2022/08/29 01:36:13;;;;;;;7.70;3.10;;;;;;;13.37;97.45;101108.00;5212736;28;20036;-72
2022/08/29 01:38:43;;;;;;;7.90;3.15;;;;;;;13.46;96.83;101099.75;5211175;28;20037;-73
2022/08/29 01:41:16;;;;;;;9.85;3.55;;;;;;;13.41;98.64;101107.81;5210620;28;20021;-73
2022/08/29 01:43:50;;;;;;;10.35;3.30;;;;;;;13.28;97.98;101108.34;5203606;28;20033;-71
2022/08/29 01:46:31;;;;;;;9.25;3.38;;;;;;;13.11;98.70;101103.75;5209103;28;20036;-71
2022/08/29 01:49:06;;;;;;;6.63;2.90;;;;;;;13.48;97.28;101118.94;5183421;28;20067;-71
2022/08/29 01:51:38;;;;;;;5.93;3.03;;;;;;;13.58;96.38;101108.00;5212343;28;20021;-71
2022/08/29 01:54:10;;;;;;;9.20;2.90;;;;;;;13.58;96.35;101107.16;5212987;28;20041;-71
2022/08/29 01:56:44;;;;;;;6.53;2.90;;;;;;;13.71;95.88;101111.88;5212370;28;20430;-71
2022/08/29 01:59:18;;;;;;;8.27;3.17;;;;;;;13.69;96.78;101104.94;5193184;28;20028;-71
2022/08/29 02:01:53;;;;;;;7.93;3.50;;;;;;;13.68;97.27;101105.88;5213930;28;20078;-71
2022/08/29 02:04:24;;;;;;;10.23;3.33;;;;;;;13.93;97.05;101109.22;5207094;28;20029;-71
2022/08/29 02:06:55;;;;;;;10.63;3.72;;;;;;;14.03;96.22;101106.16;5213731;28;20476;-73
2022/08/29 02:09:26;;;;;;;11.32;3.50;;;;;;;14.14;95.88;101108.34;5210668;28;20021;-73
2022/08/29 02:11:57;;;;;;;8.35;3.42;;;;;;;14.12;96.69;101097.03;5212748;28;20482;-73
2022/08/29 02:14:29;;;;;;;8.05;2.95;;;;;;;14.16;97.53;101102.16;5184369;28;20033;-71
2022/08/29 02:17:05;;;;;;;7.55;3.13;;;;;;;14.19;97.41;101096.75;5203092;28;20024;-71
2022/08/29 02:19:37;;;;;;;9.13;3.28;;;;;;;14.29;95.71;101102.47;5202739;28;20052;-73
2022/08/29 02:22:09;;;;;;;11.38;3.13;;;;;;;14.25;96.11;101112.25;5212806;28;20029;-71
2022/08/29 02:24:39;;;;;;;10.00;3.45;;;;;;;14.24;96.01;101101.84;5210757;28;20328;-73
2022/08/29 02:27:11;;;;;;;14.05;3.22;;;;;;;14.22;96.63;101106.31;5203429;28;20033;-73
2022/08/29 02:29:41;;;;;;;11.70;3.50;;;;;;;14.22;97.10;101109.78;5212605;28;20548;-73
2022/08/29 02:32:14;;;;;;;9.73;3.28;;;;;;;14.35;96.02;101102.22;5211816;28;20041;-73
2022/08/29 02:34:45;;;;;;;10.40;3.38;;;;;;;14.14;97.13;101108.34;5212712;28;20028;-73
2022/08/29 02:37:16;;;;;;;11.13;4.35;;;;;;;14.25;95.99;101111.44;5192411;28;20031;-73
2022/08/29 02:39:47;;;;;;;8.52;3.58;;;;;;;14.12;97.15;101107.56;5212705;28;20371;-73
2022/08/29 02:42:17;;;;;;;9.38;3.75;;;;;;;14.21;96.84;101110.69;5210280;28;20025;-73
2022/08/29 02:44:47;;;;;;;9.93;3.88;;;;;;;14.28;96.28;101116.56;5212583;28;20021;-73
2022/08/29 02:47:18;;;;;;;10.38;3.53;;;;;;;14.16;98.01;101104.78;5205836;28;20029;-73
2022/08/29 02:49:48;;;;;;;12.13;3.45;;;;;;;14.18;97.23;101115.22;5205052;28;20033;-73
2022/08/29 02:52:19;;;;;;;8.35;3.35;;;;;;;14.25;97.47;101114.06;5210159;28;20025;-71
2022/08/29 02:54:49;;;;;;;10.43;3.65;;;;;;;14.39;97.03;101109.06;5210274;28;20112;-71
2022/08/29 02:57:19;;;;;;;11.05;3.33;;;;;;;14.36;96.55;101119.69;5200132;28;20087;-71
2022/08/29 02:59:49;;;;;;;10.52;3.17;;;;;;;14.28;96.27;101112.13;5212537;28;20021;-71
2022/08/29 03:02:20;;;;;;;12.38;3.40;;;;;;;14.22;97.78;101108.94;5209961;28;20100;-71
2022/08/29 03:04:50;;;;;;;7.65;3.00;;;;;;;14.26;96.89;101113.13;5213328;28;20116;-72
2022/08/29 03:07:20;;;;;;;12.18;3.92;;;;;;;14.40;94.58;101108.16;5208771;28;20026;-71
2022/08/29 03:09:51;;;;;;;9.07;2.78;;;;;;;14.25;95.56;101111.44;5212829;28;20028;-72
2022/08/29 03:12:21;;;;;;;9.70;3.00;;;;;;;14.46;93.93;101108.72;5206741;28;20045;-71
2022/08/29 03:14:52;;;;;;;12.00;3.10;;;;;;;14.50;94.76;101101.56;5204253;28;20041;-71
2022/08/29 03:17:22;;;;;;;10.80;3.95;;;;;;;14.49;94.47;101113.88;5204760;28;20029;-71
2022/08/29 03:19:52;;;;;;;9.65;3.20;;;;;;;14.55;94.87;101105.72;5204906;28;20039;-74
2022/08/29 03:22:25;;;;;;;13.68;3.30;;;;;;;14.43;94.12;101105.38;5208391;28;20498;-71
2022/08/29 03:24:55;;;;;;;6.88;2.85;;;;;;;14.68;93.40;101108.66;5206834;28;20227;-73
2022/08/29 03:27:26;;;;;;;9.70;3.10;;;;;;;14.64;94.27;101097.44;5205525;28;20539;-73
2022/08/29 03:29:57;;;;;;;12.93;3.00;;;;;;;14.74;93.78;101106.63;5211219;28;20028;-72
2022/08/29 03:32:28;;;;;;;8.98;3.00;;;;;;;14.65;93.65;101101.78;5209724;28;20029;-72
2022/08/29 03:34:58;;;;;;;9.10;3.50;;;;;;;14.57;94.33;101108.28;5211995;28;20056;-72
2022/08/29 03:37:30;;;;;;;9.55;3.10;;;;;;;14.62;94.82;101106.31;5208672;28;20475;-72
2022/08/29 03:40:00;;;;;;;9.00;3.03;;;;;;;14.67;95.32;101102.56;5210974;28;20375;-72
2022/08/29 03:42:31;;;;;;;9.85;3.05;;;;;;;14.87;94.21;101102.53;5210014;28;20032;-73
2022/08/29 03:45:04;;;;;;;8.88;3.17;;;;;;;14.85;93.54;101099.09;5211443;28;20048;-72
2022/08/29 03:47:34;;;;;;;7.38;2.97;;;;;;;14.84;94.44;101111.41;5203512;28;20029;-72
2022/08/29 03:50:04;;;;;;;12.95;3.47;;;;;;;14.80;94.05;101100.22;5203985;28;20490;-72
2022/08/29 03:52:35;;;;;;;11.63;3.25;;;;;;;14.85;93.69;101104.38;5210038;28;20099;-72
2022/08/29 03:55:06;;;;;;;12.05;3.05;;;;;;;14.89;93.39;101105.94;5208743;28;20037;-72
2022/08/29 03:57:36;;;;;;;10.27;2.83;;;;;;;14.96;92.78;101108.22;5208813;28;20034;-72
2022/08/29 04:00:10;;;;;;;6.65;2.63;;;;;;;14.96;94.66;101107.34;5210393;28;20029;-72
2022/08/29 04:02:42;;;;;;;9.25;3.30;;;;;;;15.02;93.30;101093.94;5209667;28;20108;-71
2022/08/29 04:05:15;;;;;;;10.13;2.90;;;;;;;15.21;92.33;101103.53;5210015;28;20033;-72
2022/08/29 04:07:51;;;;;;;10.75;3.28;;;;;;;15.04;93.21;101102.63;5209396;28;20540;-71
2022/08/29 04:10:29;;;;;;;11.70;3.22;;;;;;;15.06;93.02;101103.41;5207491;28;20486;-72
2022/08/29 04:13:00;;;;;;;10.05;3.03;;;;;;;15.07;93.12;101105.09;5204892;28;20171;-71
2022/08/29 04:15:32;;;;;;;6.82;2.90;;;;;;;15.16;92.82;101112.59;5207747;28;20111;-71
2022/08/29 04:18:05;;;;;;;9.73;3.00;;;;;;;15.30;92.74;101113.69;5200481;28;20486;-71
2022/08/29 04:20:38;;;;;;;8.35;2.80;;;;;;;15.36;92.23;101113.41;5187720;28;20048;-72
2022/08/29 04:23:13;;;;;;;8.25;2.97;;;;;;;15.20;93.44;101109.75;5209892;28;20025;-71
2022/08/29 04:25:43;;;;;;;10.45;3.13;;;;;;;15.27;93.16;101108.53;5207339;28;20040;-72
2022/08/29 04:28:14;;;;;;;6.15;2.70;;;;;;;15.30;93.00;101108.44;5208208;28;20029;-71
2022/08/29 04:30:47;;;;;;;13.27;3.08;;;;;;;15.33;93.56;101104.81;5204264;28;20025;-72
2022/08/29 04:33:20;;;;;;;15.70;3.35;;;;;;;15.33;91.88;101108.28;5206333;28;20024;-72
2022/08/29 04:35:52;;;;;;;11.63;3.60;;;;;;;15.33;93.59;101110.91;5215544;28;20529;-72
2022/08/29 04:38:22;;;;;;;9.95;2.80;;;;;;;15.50;92.37;101116.25;5209524;28;20029;-72
2022/08/29 04:40:53;;;;;;;7.85;3.15;;;;;;;15.55;92.88;101114.25;5212715;28;20029;-72
2022/08/29 04:43:23;;;;;;;9.40;3.08;;;;;;;15.30;93.21;101113.69;5209405;28;20030;-72
2022/08/29 04:45:54;;;;;;;10.20;3.13;;;;;;;15.56;91.93;101113.31;5212352;28;20044;-72
2022/08/29 04:48:25;;;;;;;9.38;2.80;;;;;;;15.54;92.86;101112.53;5206976;28;20703;-71
2022/08/29 04:50:57;;;;;;;11.52;2.70;;;;;;;15.52;93.10;101109.13;5195802;28;20033;-72
2022/08/29 04:53:28;;;;;;;7.40;2.78;;;;;;;15.55;93.65;101108.97;5215040;28;20087;-72
2022/08/29 04:56:02;;;;;;;9.30;2.40;;;;;;;15.68;92.69;101104.00;5215345;28;20037;-72
2022/08/29 04:58:34;;;;;;;10.45;2.67;;;;;;;15.72;92.81;101110.84;5215230;28;20590;-72
2022/08/29 05:01:06;;;;;;;7.97;2.95;;;;;;;15.77;93.05;101108.81;5217032;28;20029;-71
2022/08/29 05:03:36;;;;;;;9.60;2.95;;;;;;;15.71;92.87;101120.50;5216025;28;20021;-72
2022/08/29 05:06:10;;;;;;;8.20;2.63;;;;;;;15.60;93.14;101117.53;5216341;28;20470;-72
2022/08/29 05:08:42;;;;;;;10.10;2.60;;;;;;;15.69;92.87;101113.63;5215556;28;20026;-72
2022/08/29 05:11:17;;;;;;;12.27;3.10;;;;;;;15.76;94.35;101115.88;5215960;28;20025;-72
2022/08/29 05:13:48;;;;;;;15.23;3.40;;;;;;;15.74;94.37;101119.50;5217588;28;20032;-72
2022/08/29 05:16:18;;;;;;;7.78;2.55;;;;;;;15.83;93.68;101119.94;5214504;28;20029;-72
2022/08/29 05:18:49;;;;;;;9.57;2.42;;;;;;;15.60;94.45;101116.69;5205217;28;20033;-71
2022/08/29 05:21:30;;;;;;;12.57;2.85;;;;;;;15.60;94.92;101122.81;5215077;28;20087;-72
2022/08/29 05:24:04;;;;;;;8.95;2.90;;;;;;;15.69;95.19;101118.88;5213821;28;20037;-72
2022/08/29 05:26:41;;;;;;;11.70;2.92;;;;;;;15.75;93.76;101122.09;5215087;28;20035;-72
2022/08/29 05:29:12;;;;;;;12.95;3.53;;;;;;;15.70;94.58;101124.06;5215200;28;20033;-72
2022/08/29 05:31:42;;;;;;;9.05;2.72;;;;;;;16.00;94.02;101127.88;5215928;28;20021;-72
2022/08/29 05:34:13;;;;;;;10.68;3.60;;;;;;;15.67;94.75;101121.59;5214887;28;20111;-72
2022/08/29 05:36:44;;;;;;;11.68;2.70;;;;;;;15.78;95.40;101131.63;5211282;28;20029;-72
2022/08/29 05:39:14;;;;;;;10.45;2.90;;;;;;;15.73;95.33;101134.47;5210612;28;20017;-72
2022/08/29 05:41:45;;;;;;;12.35;2.88;;;;;;;15.96;93.83;101134.22;5211822;28;20029;-73
2022/08/29 05:44:15;;;;;;;8.93;2.85;;;;;;;15.92;94.10;101140.59;5211218;28;20029;-73
2022/08/29 05:46:47;;;;;;;10.93;3.13;;;;;;;16.03;93.44;101135.63;5202480;28;20285;-72
2022/08/29 05:49:18;;;;;;;11.88;3.53;;;;;;;16.00;94.57;101148.09;5200923;28;20021;-72
2022/08/29 05:51:51;;;;;;;12.10;3.00;;;;;;;16.00;95.49;101146.31;5195587;28;20047;-72
2022/08/29 05:54:23;;;;;;;8.57;2.67;;;;;;;16.20;94.19;101143.56;5210403;28;20065;-72
2022/08/29 05:56:53;;;;;;;11.00;3.60;;;;;;;16.18;93.30;101147.22;5205258;28;20053;-72
2022/08/29 05:59:24;;;;;;;9.45;2.45;;;;;;;16.13;95.01;101136.91;5209162;28;20060;-73
2022/08/29 06:01:54;;;;;;;10.63;2.55;;;;;;;16.42;93.16;101146.88;5208524;28;20084;-73
2022/08/29 06:04:24;;;;;;;13.32;3.25;;;;;;;16.58;92.69;101137.25;5194865;28;20502;-73
2022/08/29 06:06:55;;;;;;;8.40;2.75;;;;;;;16.73;92.50;101128.53;5205360;28;20415;-72
2022/08/29 06:09:25;;;;;;;11.93;2.88;;;;;;;16.64;93.03;101139.59;5210467;28;20057;-73
2022/08/29 06:11:57;;;;;;;9.93;2.65;;;;;;;16.58;94.56;101142.53;5195966;28;20029;-73
2022/08/29 06:14:27;;;;;;;8.52;2.50;;;;;;;16.72;92.37;101140.03;5206094;28;20151;-73
2022/08/29 06:16:58;;;;;;;8.07;2.95;;;;;;;16.68;93.75;101146.41;5204839;28;20026;-73
2022/08/29 06:19:33;;;;;;;8.82;2.55;;;;;;;16.69;93.97;101144.63;5202000;28;20029;-73
2022/08/29 06:22:06;;;;;;;8.88;2.72;;;;;;;16.77;93.02;101147.72;5213045;28;20040;-72
2022/08/29 06:24:38;;;;;;;8.32;2.72;;;;;;;16.75;92.33;101149.59;5209411;28;20277;-72
2022/08/29 06:27:08;;;;;;;10.93;2.53;;;;;;;16.84;93.81;101149.97;5206760;28;20032;-74
2022/08/29 06:29:39;;;;;;;11.32;2.90;;;;;;;16.94;92.56;101153.84;5211266;28;20029;-73
2022/08/29 06:32:10;;;;;;;11.60;2.90;;;;;;;16.71;94.61;101154.16;5212497;28;20029;-73
2022/08/29 06:34:40;;;;;;;10.05;3.03;;;;;;;16.87;92.51;101149.81;5211767;28;20119;-72
2022/08/29 06:37:11;;;;;;;10.38;3.05;;;;;;;17.07;92.23;101160.16;5211544;28;20037;-73
2022/08/29 06:39:42;;;;;;;13.50;2.80;;;;;;;16.94;93.08;101161.78;5210356;28;20441;-72
2022/08/29 06:42:12;;;;;;;9.50;2.92;;;;;;;16.77;93.58;101165.28;5212412;28;21440;-72
2022/08/29 06:44:42;;;;;;;11.07;3.28;;;;;;;16.79;94.06;101170.47;5205179;28;20029;-72
2022/08/29 06:47:13;;;;;;;12.20;3.20;;;;;;;16.90;92.82;101176.91;5202430;28;20037;-72
2022/08/29 06:49:43;;;;;;;14.27;3.00;;;;;;;16.78;94.95;101161.69;5203770;28;20037;-73
2022/08/29 06:52:13;;;;;;;13.98;3.20;;;;;;;17.19;92.63;101170.09;5246643;22;20063;-78
2022/08/29 06:54:43;;;;;;;9.27;2.95;;;;;;;17.22;92.36;101180.50;5230008;28;20540;-78
2022/08/29 06:57:14;;;;;;;10.85;3.20;;;;;;;17.30;92.86;101187.09;5232406;28;20093;-78
2022/08/29 06:59:44;;;;;;;9.25;3.00;;;;;;;17.19;92.82;101184.19;5231184;28;20021;-78
2022/08/29 07:02:14;;;;;;;12.40;3.20;;;;;;;17.28;91.90;101183.69;5233453;28;20032;-78
2022/08/29 07:04:45;;;;;;;10.27;3.30;;;;;;;17.27;93.09;101176.69;5231277;28;20472;-78
2022/08/29 07:07:15;;;;;;;14.00;3.13;;;;;;;17.36;92.96;101181.53;5232880;28;20375;-78
2022/08/29 07:09:45;;;;;;;9.23;3.42;;;;;;;17.34;92.04;101185.16;5229829;28;20029;-78
2022/08/29 07:12:16;;;;;;;10.77;3.45;;;;;;;17.33;92.50;101192.19;5231923;28;20504;-78
2022/08/29 07:14:46;;;;;;;9.80;3.05;;;;;;;17.17;94.96;101195.75;5230711;28;20091;-78
2022/08/29 07:17:16;;;;;;;15.10;3.35;;;;;;;17.07;95.00;101191.88;5227249;28;20025;-78
2022/08/29 07:19:47;;;;;;;11.85;3.50;;;;;;;17.06;95.47;101203.38;5225231;28;20107;-78
2022/08/29 07:22:17;;;;;;;8.45;2.85;;;;;;;16.96;96.42;101194.22;5230032;28;20020;-78
2022/08/29 07:24:47;;;;;;;7.60;2.95;;;;;;;17.13;94.66;101200.34;5232937;28;20506;-78
2022/08/29 07:27:18;;;;;;;7.97;2.90;;;;;;;17.24;96.04;101202.41;5229642;28;20040;-77
2022/08/29 07:29:48;;;;;;;9.95;2.97;;;;;;;17.31;94.26;101201.16;5214880;28;20452;-78
2022/08/29 07:32:19;;;;;;;13.82;3.25;;;;;;;17.52;94.13;101197.41;5230495;28;20082;-78
2022/08/29 07:34:49;;;;;;;9.60;2.97;;;;;;;17.61;94.51;101196.88;5233114;28;20489;-78
2022/08/29 07:37:19;;;;;;;14.27;3.42;;;;;;;18.17;91.23;101195.44;5228952;28;20052;-78
2022/08/29 07:39:50;;;;;;;9.80;3.13;;;;;;;18.16;90.99;101187.63;5233532;28;20496;-78
2022/08/29 07:42:20;;;;;;;10.80;3.60;;;;;;;18.22;91.59;101195.19;5230055;28;20025;-78
2022/08/29 07:44:51;;;;;;;12.52;4.18;;;;;;;18.33;90.13;101185.72;5233416;28;20398;-78
2022/08/29 07:47:25;;;;;;;15.23;4.00;;;;;;;18.54;90.26;101192.41;5224951;28;20028;-78
2022/08/29 07:49:58;;;;;;;17.33;4.00;;;;;;;19.19;87.81;101189.38;5224016;28;20028;-78
2022/08/29 07:52:29;;;;;;;13.35;3.70;;;;;;;18.86;88.46;101184.28;5212209;28;20056;-78
2022/08/29 07:55:00;;;;;;;11.70;4.40;;;;;;;18.74;88.25;101197.44;5232710;28;20238;-78
2022/08/29 07:57:31;;;;;;;14.77;3.90;;;;;;;18.46;89.51;101193.81;5230300;28;20044;-78
2022/08/29 08:00:03;;;;;;;12.40;3.75;;;;;;;18.60;90.19;101197.38;5231752;28;20031;-78
2022/08/29 08:02:33;;;;;;;14.32;3.97;;;;;;;18.29;91.87;101181.56;5230733;28;20108;-78
2022/08/29 08:05:04;;;;;;;15.10;3.85;;;;;;;18.72;90.38;101185.19;5214622;28;20600;-78
2022/08/29 08:07:34;;;;;;;14.30;3.92;;;;;;;18.64;90.80;101184.78;5229610;28;20029;-77
2022/08/29 08:10:05;;;;;;;10.20;3.75;;;;;;;18.82;89.01;101188.09;5231285;28;20055;-78
2022/08/29 08:12:36;;;;;;;15.15;4.50;;;;;;;19.08;88.86;101187.34;5230972;28;20028;-77
2022/08/29 08:15:07;;;;;;;12.63;4.40;;;;;;;18.99;89.17;101195.00;5231156;28;20035;-78
2022/08/29 08:17:38;;;;;;;14.45;4.82;;;;;;;19.19;88.55;101194.69;5224721;28;20048;-78
2022/08/29 08:20:10;;;;;;;10.85;4.15;;;;;;;19.05;89.44;101195.50;5224778;28;20115;-78
2022/08/29 08:22:40;;;;;;;15.77;4.80;;;;;;;18.95;89.09;101201.44;5230644;28;20454;-79
2022/08/29 08:25:11;;;;;;;11.45;4.13;;;;;;;18.66;91.78;101198.81;5231573;28;20056;-78
2022/08/29 08:27:41;;;;;;;13.70;4.60;;;;;;;19.02;91.35;101202.75;5230778;28;20025;-79
2022/08/29 08:30:12;;;;;;;14.18;4.50;;;;;;;18.96;89.69;101203.97;5228789;28;20028;-78
2022/08/29 08:32:43;;;;;;;13.05;4.53;;;;;;;19.13;90.13;101195.88;5232369;28;20449;-79
2022/08/29 08:35:15;;;;;;;14.65;4.45;;;;;;;19.06;90.10;101207.78;5211061;28;20025;-78
2022/08/29 08:37:46;;;;;;;13.73;5.03;;;;;;;19.69;87.05;101209.19;5231352;28;20154;-79
2022/08/29 08:40:27;;;;;;;16.70;5.80;;;;;;;20.12;85.10;101213.47;5230053;28;20070;-79
2022/08/29 08:43:01;;;;;;;16.48;5.70;;;;;;;21.31;83.45;101208.91;5228189;28;20025;-79
2022/08/29 08:45:41;;;;;;;19.45;5.63;;;;;;;21.70;79.15;101201.66;5213842;28;20032;-79
2022/08/29 08:48:20;;;;;;;18.42;6.53;;;;;;;23.03;74.91;101196.06;5204280;28;20116;-78
2022/08/29 08:51:03;;;;;;;18.50;5.47;;;;;;;23.63;72.79;101197.47;5228918;28;20033;-79
2022/08/29 08:53:40;;;;;;;21.67;6.20;;;;;;;21.84;76.57;101209.50;5228447;28;20044;-79
2022/08/29 08:56:15;;;;;;;20.77;6.07;;;;;;;22.59;75.66;101201.25;5228727;28;20021;-79
2022/08/29 08:58:52;;;;;;;14.77;5.05;;;;;;;23.83;72.58;101191.41;5231504;28;20025;-79
2022/08/29 09:01:26;;;;;;;12.27;4.30;;;;;;;24.06;71.31;101198.41;5225410;28;20483;-78
2022/08/29 09:04:32;;;;;;;13.95;4.38;;;;;;;24.55;69.29;101196.09;5232421;28;20045;-79
2022/08/29 09:07:34;;;;;;;11.13;4.20;;;;;;;25.48;67.21;101196.91;5226427;28;20052;-79
2022/08/29 09:10:12;;;;;;;12.25;4.22;;;;;;;24.40;69.53;101202.69;5224769;28;20041;-79
2022/08/29 09:12:46;;;;;;;12.43;4.38;;;;;;;24.69;69.00;101198.47;5220489;28;20556;-79
2022/08/29 09:15:19;;;;;;;13.52;4.22;;;;;;;24.34;70.49;101197.84;5227585;28;20028;-79
2022/08/29 09:18:04;;;;;;;11.77;4.40;;;;;;;23.69;71.22;101188.97;5224965;28;20119;-79
2022/08/29 09:20:37;;;;;;;13.52;5.07;;;;;;;23.60;72.49;101189.72;5225074;28;20524;-79
2022/08/29 09:23:27;;;;;;;14.77;5.57;;;;;;;22.98;75.11;101187.56;5234695;28;20029;-78
2022/08/29 09:25:57;;;;;;;15.13;4.95;;;;;;;24.61;69.73;101181.38;5228441;28;20478;-78
2022/08/29 09:28:28;;;;;;;15.65;4.85;;;;;;;24.57;69.16;101186.13;5232643;28;20032;-79
2022/08/29 09:31:20;;;;;;;15.65;4.75;;;;;;;23.50;74.03;101183.41;5233101;28;20100;-78
2022/08/29 09:33:52;;;;;;;14.68;4.90;;;;;;;23.99;72.10;101186.53;5232864;28;20048;-78
2022/08/29 09:36:44;;;;;;;16.00;4.20;;;;;;;23.54;73.35;101186.69;5235660;28;20028;-78
2022/08/29 09:39:16;;;;;;;16.08;4.28;;;;;;;23.95;73.69;101194.91;5234552;28;20135;-79
2022/08/29 09:42:10;;;;;;;11.27;3.88;;;;;;;23.53;74.75;101196.50;5232927;28;20021;-79
2022/08/29 09:44:54;;;;;;;19.85;4.90;;;;;;;23.22;76.33;101189.19;5213946;28;20037;-78
2022/08/29 09:47:31;;;;;;;13.93;4.55;;;;;;;23.25;75.84;101193.44;5225053;28;20056;-78
2022/08/29 09:50:05;;;;;;;10.32;4.07;;;;;;;22.92;77.03;101188.03;5210143;28;20024;-79
2022/08/29 09:52:39;;;;;;;9.88;4.15;;;;;;;22.92;77.09;101188.88;5233079;28;20053;-78
2022/08/29 09:55:21;;;;;;;15.10;4.78;;;;;;;23.07;77.87;101187.72;5234359;28;20024;-78
2022/08/29 09:57:55;;;;;;;14.88;4.45;;;;;;;23.02;77.09;101183.69;5234880;28;20505;-78
2022/08/29 10:00:30;;;;;;;12.95;4.13;;;;;;;22.77;77.51;101184.72;5209405;28;20029;-79
2022/08/29 10:03:04;;;;;;;17.97;5.30;;;;;;;22.52;78.95;101191.16;5233603;28;20028;-79
2022/08/29 10:05:39;;;;;;;16.08;4.70;;;;;;;22.60;79.41;101192.28;5232888;28;20029;-78
2022/08/29 10:08:27;;;;;;;17.30;4.45;;;;;;;22.92;78.31;101183.56;5231784;28;20040;-79
2022/08/29 10:11:01;;;;;;;16.00;4.60;;;;;;;23.35;76.72;101181.94;5228490;28;20033;-78
2022/08/29 10:13:54;;;;;;;13.23;4.43;;;;;;;23.04;76.63;101179.09;5212491;28;20143;-77
2022/08/29 10:16:47;;;;;;;11.90;3.72;;;;;;;22.97;77.58;101184.03;5224841;28;20059;-78
2022/08/29 10:19:24;;;;;;;11.30;4.05;;;;;;;22.97;77.94;101181.38;5234057;28;20047;-79
2022/08/29 10:22:07;;;;;;;12.27;3.72;;;;;;;22.86;78.46;101180.50;5232005;28;20498;-79
2022/08/29 10:25:00;;;;;;;11.32;4.03;;;;;;;22.34;79.96;101184.50;5232859;28;20043;-78
2022/08/29 10:27:42;;;;;;;10.55;4.45;;;;;;;23.05;78.00;101184.28;5227703;28;20086;-79
2022/08/29 10:30:20;;;;;;;12.00;4.03;;;;;;;23.22;77.87;101188.34;5231517;28;20106;-76
2022/08/29 10:33:15;;;;;;;12.98;4.85;;;;;;;23.24;76.96;101189.09;5215053;28;20082;-76
2022/08/29 10:35:54;;;;;;;10.55;3.78;;;;;;;23.22;77.01;101189.19;5232636;28;20028;-76
2022/08/29 10:39:03;;;;;;;9.45;3.72;;;;;;;23.57;76.28;101186.44;5229521;28;20478;-76
2022/08/29 10:41:51;;;;;;;9.07;3.28;;;;;;;23.68;75.37;101184.59;5201822;28;20071;-75
2022/08/29 10:44:49;;;;;;;11.93;3.80;;;;;;;23.51;77.07;101185.09;5211753;28;20056;-76
2022/08/29 10:47:42;;;;;;;8.13;3.53;;;;;;;23.37;78.86;101180.00;5226629;28;20081;-76
2022/08/29 10:50:18;;;;;;;11.88;3.63;;;;;;;23.05;77.63;101181.63;5206224;28;20490;-76
2022/08/29 10:52:57;;;;;;;12.48;3.58;;;;;;;23.29;77.15;101169.09;5233843;28;20032;-76
2022/08/29 10:55:49;;;;;;;12.90;3.53;;;;;;;23.35;77.44;101178.44;5210600;28;20444;-76
2022/08/29 10:58:38;;;;;;;10.68;4.13;;;;;;;23.92;75.38;101176.47;5232382;28;20037;-76
2022/08/29 11:01:11;;;;;;;8.02;3.10;;;;;;;24.22;77.10;101172.13;5230467;28;20160;-76
2022/08/29 11:03:51;;;;;;;7.07;2.90;;;;;;;23.60;74.25;101179.03;5229265;28;20068;-76
2022/08/29 11:06:29;;;;;;;9.40;2.97;;;;;;;23.03;75.25;101182.72;5229440;28;20479;-76
2022/08/29 11:09:14;;;;;;;10.05;3.63;;;;;;;23.21;77.42;101178.66;5227032;28;20035;-76
2022/08/29 11:11:57;;;;;;;10.75;3.60;;;;;;;23.24;76.34;101175.75;5227753;28;20025;-75
2022/08/29 11:14:34;;;;;;;7.97;3.40;;;;;;;23.35;75.74;101173.94;5220526;28;20511;-76
2022/08/29 11:17:08;;;;;;;9.63;3.30;;;;;;;23.68;76.10;101175.75;5221030;28;20041;-76
2022/08/29 11:19:44;;;;;;;7.85;3.22;;;;;;;23.93;73.96;101173.69;5221880;28;20513;-76
2022/08/29 11:22:22;;;;;;;8.27;3.70;;;;;;;23.72;75.97;101172.69;5230304;28;20029;-76
2022/08/29 11:25:08;;;;;;;7.38;3.10;;;;;;;23.64;76.57;101168.94;5232803;28;20025;-76
2022/08/29 11:27:57;;;;;;;7.75;2.97;;;;;;;24.29;74.86;101162.66;5227574;28;20056;-75
2022/08/29 11:30:53;;;;;;;9.43;3.40;;;;;;;24.13;73.00;101167.56;5226488;28;20036;-76
2022/08/29 11:33:45;;;;;;;9.15;2.72;;;;;;;24.60;73.21;101167.19;5229125;28;20027;-76
2022/08/29 11:36:24;;;;;;;11.07;3.65;;;;;;;24.55;73.89;101176.56;5230384;28;20056;-76
2022/08/29 11:39:42;;;;;;;9.68;3.10;;;;;;;24.61;73.82;101163.53;5225045;28;20067;-76
2022/08/29 11:42:15;;;;;;;9.95;3.03;;;;;;;24.54;74.82;101170.34;5230592;28;20037;-75
2022/08/29 11:44:50;;;;;;;11.27;3.53;;;;;;;24.29;73.21;101177.81;5227665;28;20024;-76
2022/08/29 11:47:54;;;;;;;9.18;3.33;;;;;;;23.80;74.21;101175.63;5223485;28;20115;-75
2022/08/29 11:50:33;;;;;;;7.40;3.13;;;;;;;23.75;75.54;101176.94;5232729;28;20027;-73
2022/08/29 11:53:33;;;;;;;8.18;3.58;;;;;;;24.05;74.07;101175.34;5224055;28;20525;-76
2022/08/29 11:56:12;;;;;;;9.30;3.40;;;;;;;23.96;74.20;101172.56;5221896;28;20406;-75